Weather at Arbois Airfield [CLOSED]

Public forecast

Using degrees Celsius for public forecast. Weather courtesy of forecast.io.

Closest aviation weather report (METAR) to Arbois Airfield

Closest report is Dole-Tavaux Airport, 15.2 nm (28.2 km) WNW. Retrieved 2020/09/30 15:00 UTC (9 minutes ago):

LFGJ 301500Z AUTO 20004KT 140V240 9999 FEW033 20/12 Q1012 NOSIG

Closest aviation forecast (TAF) to Arbois Airfield

Forecast is more than 12 hours old.

Closest forecast is Dole-Tavaux Airport, 15.2 nm (28.2 km) WNW. Retrieved 2020/06/22 09:21 UTC (3 months ago):

TAF LFGJ 220800Z 2209/2221 01008KT 9999 FEW035 BKN053 BECMG 2212/2215 CAVOK